sensor_id;sensor_type;location;lat;lon;timestamp;temperature;humidity
16995;DHT22;8614;48.522;9.206;2023-02-21T03:01:35;2.80;99.90
16995;DHT22;8614;48.522;9.206;2023-02-21T03:04:28;2.90;99.90
16995;DHT22;8614;48.522;9.206;2023-02-21T03:07:01;3.00;99.90
16995;DHT22;8614;48.522;9.206;2023-02-21T03:09:37;3.00;99.90
16995;DHT22;8614;48.522;9.206;2023-02-21T03:12:10;3.00;99.90
16995;DHT22;8614;48.522;9.206;2023-02-21T03:14:45;3.00;99.90
16995;DHT22;8614;48.522;9.206;2023-02-21T03:17:19;3.10;99.90
16995;DHT22;8614;48.522;9.206;2023-02-21T03:19:51;3.10;99.90
16995;DHT22;8614;48.522;9.206;2023-02-21T03:22:22;3.10;99.90
16995;DHT22;8614;48.522;9.206;2023-02-21T03:24:53;3.10;99.90
16995;DHT22;8614;48.522;9.206;2023-02-21T03:27:22;3.10;99.90
16995;DHT22;8614;48.522;9.206;2023-02-21T03:30:00;3.10;99.90
16995;DHT22;8614;48.522;9.206;2023-02-21T03:32:32;3.10;99.90
16995;DHT22;8614;48.522;9.206;2023-02-21T03:35:01;3.00;99.90
16995;DHT22;8614;48.522;9.206;2023-02-21T03:37:30;3.00;99.90
16995;DHT22;8614;48.522;9.206;2023-02-21T03:39:59;3.10;99.90
16995;DHT22;8614;48.522;9.206;2023-02-21T03:42:27;3.10;99.90
16995;DHT22;8614;48.522;9.206;2023-02-21T03:44:53;3.00;99.90
16995;DHT22;8614;48.522;9.206;2023-02-21T03:47:21;3.00;99.90
16995;DHT22;8614;48.522;9.206;2023-02-21T03:49:49;3.00;99.90
16995;DHT22;8614;48.522;9.206;2023-02-21T03:52:17;3.00;99.90
16995;DHT22;8614;48.522;9.206;2023-02-21T03:54:44;2.90;99.90
16995;DHT22;8614;48.522;9.206;2023-02-21T03:57:15;2.90;99.90
16995;DHT22;8614;48.522;9.206;2023-02-21T03:59:44;2.90;99.90
16995;DHT22;8614;48.522;9.206;2023-02-21T04:02:12;2.80;99.90
16995;DHT22;8614;48.522;9.206;2023-02-21T04:04:39;2.80;99.90
16995;DHT22;8614;48.522;9.206;2023-02-21T04:07:10;2.80;99.90
16995;DHT22;8614;48.522;9.206;2023-02-21T04:09:38;2.80;99.90
16995;DHT22;8614;48.522;9.206;2023-02-21T04:12:07;2.70;99.90
16995;DHT22;8614;48.522;9.206;2023-02-21T04:14:36;2.70;99.90
16995;DHT22;8614;48.522;9.206;2023-02-21T04:17:03;2.70;99.90
16995;DHT22;8614;48.522;9.206;2023-02-21T04:19:31;2.60;99.90
16995;DHT22;8614;48.522;9.206;2023-02-21T04:21:58;2.60;99.90
16995;DHT22;8614;48.522;9.206;2023-02-21T04:24:27;2.60;99.90
16995;DHT22;8614;48.522;9.206;2023-02-21T04:26:55;2.60;99.90
16995;DHT22;8614;48.522;9.206;2023-02-21T04:29:23;2.50;99.90
16995;DHT22;8614;48.522;9.206;2023-02-21T04:31:50;2.50;99.90
16995;DHT22;8614;48.522;9.206;2023-02-21T04:34:17;2.50;99.90
16995;DHT22;8614;48.522;9.206;2023-02-21T04:36:45;2.50;99.90
16995;DHT22;8614;48.522;9.206;2023-02-21T04:39:12;2.40;99.90
16995;DHT22;8614;48.522;9.206;2023-02-21T04:41:41;2.50;99.90
16995;DHT22;8614;48.522;9.206;2023-02-21T04:44:08;2.50;99.90
16995;DHT22;8614;48.522;9.206;2023-02-21T04:46:35;2.40;99.90
16995;DHT22;8614;48.522;9.206;2023-02-21T04:49:02;2.40;99.90
16995;DHT22;8614;48.522;9.206;2023-02-21T04:51:29;2.40;99.90
16995;DHT22;8614;48.522;9.206;2023-02-21T04:53:56;2.40;99.90
16995;DHT22;8614;48.522;9.206;2023-02-21T04:56:24;2.40;99.90
16995;DHT22;8614;48.522;9.206;2023-02-21T04:58:53;2.40;99.90
16995;DHT22;8614;48.522;9.206;2023-02-21T05:01:21;2.40;99.90
16995;DHT22;8614;48.522;9.206;2023-02-21T05:03:48;2.40;99.90
16995;DHT22;8614;48.522;9.206;2023-02-21T05:06:18;2.40;99.90
16995;DHT22;8614;48.522;9.206;2023-02-21T05:08:45;2.30;99.90
16995;DHT22;8614;48.522;9.206;2023-02-21T05:11:12;2.30;99.90
16995;DHT22;8614;48.522;9.206;2023-02-21T05:13:39;2.20;99.90
16995;DHT22;8614;48.522;9.206;2023-02-21T05:16:07;2.20;99.90
16995;DHT22;8614;48.522;9.206;2023-02-21T05:18:34;2.10;99.90
16995;DHT22;8614;48.522;9.206;2023-02-21T05:21:03;2.10;99.90
16995;DHT22;8614;48.522;9.206;2023-02-21T05:23:29;2.10;99.90
16995;DHT22;8614;48.522;9.206;2023-02-21T05:26:06;2.10;99.90
16995;DHT22;8614;48.522;9.206;2023-02-21T05:28:35;2.10;99.90
16995;DHT22;8614;48.522;9.206;2023-02-21T05:31:02;2.10;99.90
16995;DHT22;8614;48.522;9.206;2023-02-21T05:33:31;2.10;99.90
16995;DHT22;8614;48.522;9.206;2023-02-21T05:35:58;2.10;99.90
16995;DHT22;8614;48.522;9.206;2023-02-21T05:38:25;2.10;99.90
16995;DHT22;8614;48.522;9.206;2023-02-21T05:40:52;2.10;99.90
16995;DHT22;8614;48.522;9.206;2023-02-21T05:43:19;2.10;99.90
16995;DHT22;8614;48.522;9.206;2023-02-21T05:45:46;2.10;99.90
16995;DHT22;8614;48.522;9.206;2023-02-21T05:48:13;2.10;99.90
16995;DHT22;8614;48.522;9.206;2023-02-21T05:50:41;2.10;99.90
16995;DHT22;8614;48.522;9.206;2023-02-21T05:53:09;2.00;99.90
16995;DHT22;8614;48.522;9.206;2023-02-21T05:55:36;2.00;99.90
16995;DHT22;8614;48.522;9.206;2023-02-21T05:58:03;2.00;99.90
16995;DHT22;8614;48.522;9.206;2023-02-21T06:00:30;2.00;99.90
16995;DHT22;8614;48.522;9.206;2023-02-21T06:02:57;2.10;99.90
16995;DHT22;8614;48.522;9.206;2023-02-21T06:05:24;2.10;99.90
16995;DHT22;8614;48.522;9.206;2023-02-21T06:07:52;2.10;99.90
16995;DHT22;8614;48.522;9.206;2023-02-21T06:10:19;2.10;99.90
16995;DHT22;8614;48.522;9.206;2023-02-21T06:12:46;2.00;99.90
16995;DHT22;8614;48.522;9.206;2023-02-21T06:15:13;2.00;99.90
16995;DHT22;8614;48.522;9.206;2023-02-21T06:17:40;2.00;99.90
16995;DHT22;8614;48.522;9.206;2023-02-21T06:20:09;2.00;99.90
16995;DHT22;8614;48.522;9.206;2023-02-21T06:22:36;2.00;99.90
16995;DHT22;8614;48.522;9.206;2023-02-21T06:25:06;2.00;99.90
16995;DHT22;8614;48.522;9.206;2023-02-21T06:27:33;2.00;99.90
16995;DHT22;8614;48.522;9.206;2023-02-21T06:30:00;2.10;99.90
16995;DHT22;8614;48.522;9.206;2023-02-21T06:32:27;2.10;99.90
16995;DHT22;8614;48.522;9.206;2023-02-21T06:34:53;2.10;99.90
16995;DHT22;8614;48.522;9.206;2023-02-21T06:37:20;2.10;99.90
16995;DHT22;8614;48.522;9.206;2023-02-21T06:39:47;2.10;99.90
16995;DHT22;8614;48.522;9.206;2023-02-21T06:42:17;2.20;99.90
16995;DHT22;8614;48.522;9.206;2023-02-21T06:44:44;2.30;99.90
16995;DHT22;8614;48.522;9.206;2023-02-21T06:47:11;2.30;99.90
16995;DHT22;8614;48.522;9.206;2023-02-21T06:49:38;2.40;99.90
16995;DHT22;8614;48.522;9.206;2023-02-21T06:52:06;2.50;99.90
16995;DHT22;8614;48.522;9.206;2023-02-21T06:54:33;2.60;99.90
16995;DHT22;8614;48.522;9.206;2023-02-21T06:56:59;2.80;99.90
16995;DHT22;8614;48.522;9.206;2023-02-21T06:59:28;2.90;99.90
16995;DHT22;8614;48.522;9.206;2023-02-21T07:01:55;3.00;99.90
16995;DHT22;8614;48.522;9.206;2023-02-21T07:04:23;3.10;99.90
16995;DHT22;8614;48.522;9.206;2023-02-21T07:06:51;3.20;99.90
16995;DHT22;8614;48.522;9.206;2023-02-21T07:09:18;3.40;99.90
16995;DHT22;8614;48.522;9.206;2023-02-21T07:11:44;3.50;99.90
16995;DHT22;8614;48.522;9.206;2023-02-21T07:14:12;3.50;99.90
16995;DHT22;8614;48.522;9.206;2023-02-21T07:16:40;3.60;99.90
16995;DHT22;8614;48.522;9.206;2023-02-21T07:19:07;3.70;99.90
16995;DHT22;8614;48.522;9.206;2023-02-21T07:21:34;3.90;99.90
16995;DHT22;8614;48.522;9.206;2023-02-21T07:24:01;4.10;99.90
16995;DHT22;8614;48.522;9.206;2023-02-21T07:26:28;4.30;99.90
16995;DHT22;8614;48.522;9.206;2023-02-21T07:28:55;4.50;99.90
16995;DHT22;8614;48.522;9.206;2023-02-21T07:31:22;4.60;99.90
16995;DHT22;8614;48.522;9.206;2023-02-21T07:33:50;4.70;99.90
16995;DHT22;8614;48.522;9.206;2023-02-21T07:36:17;4.80;99.90
16995;DHT22;8614;48.522;9.206;2023-02-21T07:38:44;4.80;99.90
16995;DHT22;8614;48.522;9.206;2023-02-21T07:41:13;4.80;99.90
16995;DHT22;8614;48.522;9.206;2023-02-21T07:43:41;4.90;99.90
16995;DHT22;8614;48.522;9.206;2023-02-21T07:46:09;5.00;99.90
16995;DHT22;8614;48.522;9.206;2023-02-21T07:48:36;5.20;99.90
16995;DHT22;8614;48.522;9.206;2023-02-21T07:51:05;5.60;99.90
16995;DHT22;8614;48.522;9.206;2023-02-21T07:53:32;6.00;99.90
16995;DHT22;8614;48.522;9.206;2023-02-21T07:55:59;6.50;99.90
16995;DHT22;8614;48.522;9.206;2023-02-21T07:58:26;7.00;99.90
16995;DHT22;8614;48.522;9.206;2023-02-21T08:00:52;7.50;99.90
16995;DHT22;8614;48.522;9.206;2023-02-21T08:03:20;8.00;99.90
16995;DHT22;8614;48.522;9.206;2023-02-21T08:05:47;8.50;99.90
16995;DHT22;8614;48.522;9.206;2023-02-21T08:08:15;8.90;99.90
16995;DHT22;8614;48.522;9.206;2023-02-21T08:10:42;9.30;99.90
16995;DHT22;8614;48.522;9.206;2023-02-21T08:13:09;9.50;99.90
16995;DHT22;8614;48.522;9.206;2023-02-21T08:15:36;9.80;99.90
16995;DHT22;8614;48.522;9.206;2023-02-21T08:18:02;10.10;99.90
16995;DHT22;8614;48.522;9.206;2023-02-21T08:20:29;10.50;99.90
16995;DHT22;8614;48.522;9.206;2023-02-21T08:22:56;10.70;99.90
16995;DHT22;8614;48.522;9.206;2023-02-21T08:25:24;10.60;99.90
16995;DHT22;8614;48.522;9.206;2023-02-21T08:27:51;10.70;99.90
16995;DHT22;8614;48.522;9.206;2023-02-21T08:30:20;10.90;99.90
16995;DHT22;8614;48.522;9.206;2023-02-21T08:32:46;11.20;99.90
16995;DHT22;8614;48.522;9.206;2023-02-21T08:35:14;11.50;99.90
16995;DHT22;8614;48.522;9.206;2023-02-21T08:37:43;11.60;99.90
16995;DHT22;8614;48.522;9.206;2023-02-21T08:40:11;12.00;99.90
16995;DHT22;8614;48.522;9.206;2023-02-21T08:42:40;12.30;99.90
16995;DHT22;8614;48.522;9.206;2023-02-21T08:45:07;12.40;99.90
16995;DHT22;8614;48.522;9.206;2023-02-21T08:47:37;12.50;99.90
16995;DHT22;8614;48.522;9.206;2023-02-21T08:50:05;12.50;99.90
16995;DHT22;8614;48.522;9.206;2023-02-21T08:52:32;12.50;99.90
16995;DHT22;8614;48.522;9.206;2023-02-21T08:54:58;12.50;99.90
16995;DHT22;8614;48.522;9.206;2023-02-21T08:57:25;12.80;99.90
16995;DHT22;8614;48.522;9.206;2023-02-21T08:59:53;12.60;99.90
16995;DHT22;8614;48.522;9.206;2023-02-21T09:02:22;12.80;99.90
16995;DHT22;8614;48.522;9.206;2023-02-21T09:04:51;12.50;99.90
16995;DHT22;8614;48.522;9.206;2023-02-21T09:07:20;12.60;99.90
16995;DHT22;8614;48.522;9.206;2023-02-21T09:09:47;12.60;99.90
16995;DHT22;8614;48.522;9.206;2023-02-21T09:12:14;13.00;99.90
16995;DHT22;8614;48.522;9.206;2023-02-21T09:14:42;13.30;99.90
16995;DHT22;8614;48.522;9.206;2023-02-21T09:17:12;13.50;99.90
16995;DHT22;8614;48.522;9.206;2023-02-21T09:19:39;13.40;99.90
16995;DHT22;8614;48.522;9.206;2023-02-21T09:22:06;13.50;99.90
16995;DHT22;8614;48.522;9.206;2023-02-21T09:24:33;13.50;99.90
16995;DHT22;8614;48.522;9.206;2023-02-21T09:27:00;13.30;99.90
16995;DHT22;8614;48.522;9.206;2023-02-21T09:29:29;13.20;99.90
16995;DHT22;8614;48.522;9.206;2023-02-21T09:31:57;13.50;99.90
16995;DHT22;8614;48.522;9.206;2023-02-21T09:34:25;13.60;99.90
16995;DHT22;8614;48.522;9.206;2023-02-21T09:36:52;13.80;99.90
16995;DHT22;8614;48.522;9.206;2023-02-21T09:39:21;13.90;99.90
16995;DHT22;8614;48.522;9.206;2023-02-21T09:41:48;14.20;99.90
16995;DHT22;8614;48.522;9.206;2023-02-21T09:44:21;14.30;99.90
16995;DHT22;8614;48.522;9.206;2023-02-21T09:46:50;14.20;99.90
16995;DHT22;8614;48.522;9.206;2023-02-21T09:49:21;14.30;99.90
16995;DHT22;8614;48.522;9.206;2023-02-21T09:51:52;14.40;99.90
16995;DHT22;8614;48.522;9.206;2023-02-21T09:54:25;14.60;99.90
16995;DHT22;8614;48.522;9.206;2023-02-21T09:56:53;14.50;99.90
16995;DHT22;8614;48.522;9.206;2023-02-21T09:59:22;14.50;99.90
16995;DHT22;8614;48.522;9.206;2023-02-21T10:02:08;14.60;99.90
16995;DHT22;8614;48.522;9.206;2023-02-21T10:04:52;14.40;99.90
16995;DHT22;8614;48.522;9.206;2023-02-21T10:07:28;14.20;99.90
16995;DHT22;8614;48.522;9.206;2023-02-21T10:10:02;14.10;99.90
16995;DHT22;8614;48.522;9.206;2023-02-21T10:12:34;14.10;99.90
16995;DHT22;8614;48.522;9.206;2023-02-21T10:15:24;14.20;99.90
16995;DHT22;8614;48.522;9.206;2023-02-21T10:18:03;14.20;99.90
16995;DHT22;8614;48.522;9.206;2023-02-21T10:20:34;13.90;99.90
16995;DHT22;8614;48.522;9.206;2023-02-21T10:23:06;13.90;99.90
16995;DHT22;8614;48.522;9.206;2023-02-21T10:25:43;13.80;99.90
16995;DHT22;8614;48.522;9.206;2023-02-21T10:28:16;13.80;99.90
16995;DHT22;8614;48.522;9.206;2023-02-21T10:30:45;13.80;99.90
16995;DHT22;8614;48.522;9.206;2023-02-21T10:33:12;13.70;99.90
16995;DHT22;8614;48.522;9.206;2023-02-21T10:35:40;13.70;99.90
16995;DHT22;8614;48.522;9.206;2023-02-21T10:38:11;13.80;99.90
16995;DHT22;8614;48.522;9.206;2023-02-21T10:40:41;13.70;99.90
16995;DHT22;8614;48.522;9.206;2023-02-21T10:43:11;13.70;99.90
16995;DHT22;8614;48.522;9.206;2023-02-21T10:45:41;13.60;99.90
16995;DHT22;8614;48.522;9.206;2023-02-21T10:48:11;13.60;99.90
16995;DHT22;8614;48.522;9.206;2023-02-21T10:50:42;13.60;99.90
16995;DHT22;8614;48.522;9.206;2023-02-21T10:53:23;13.50;99.90
16995;DHT22;8614;48.522;9.206;2023-02-21T10:58:58;13.50;99.90
16995;DHT22;8614;48.522;9.206;2023-02-21T11:01:35;13.50;99.90
16995;DHT22;8614;48.522;9.206;2023-02-21T11:04:05;13.50;99.90
16995;DHT22;8614;48.522;9.206;2023-02-21T11:06:35;13.50;99.90
16995;DHT22;8614;48.522;9.206;2023-02-21T11:09:24;13.70;99.90
16995;DHT22;8614;48.522;9.206;2023-02-21T11:12:01;13.70;99.90
16995;DHT22;8614;48.522;9.206;2023-02-21T11:14:29;13.80;99.90
16995;DHT22;8614;48.522;9.206;2023-02-21T11:17:13;13.90;99.90
16995;DHT22;8614;48.522;9.206;2023-02-21T11:19:43;13.90;99.90
16995;DHT22;8614;48.522;9.206;2023-02-21T11:22:11;14.00;99.90
16995;DHT22;8614;48.522;9.206;2023-02-21T11:24:51;14.00;99.90
16995;DHT22;8614;48.522;9.206;2023-02-21T11:27:19;14.00;99.90
16995;DHT22;8614;48.522;9.206;2023-02-21T11:29:48;14.00;99.90
16995;DHT22;8614;48.522;9.206;2023-02-21T11:32:22;14.10;99.90
16995;DHT22;8614;48.522;9.206;2023-02-21T11:34:50;14.00;99.90
16995;DHT22;8614;48.522;9.206;2023-02-21T11:37:17;14.00;99.90
16995;DHT22;8614;48.522;9.206;2023-02-21T11:39:50;14.00;99.90
16995;DHT22;8614;48.522;9.206;2023-02-21T11:42:26;14.00;99.90
16995;DHT22;8614;48.522;9.206;2023-02-21T11:45:10;14.00;99.90
16995;DHT22;8614;48.522;9.206;2023-02-21T11:47:42;14.10;99.90
16995;DHT22;8614;48.522;9.206;2023-02-21T11:50:17;14.10;99.90
16995;DHT22;8614;48.522;9.206;2023-02-21T11:52:49;14.20;99.90
16995;DHT22;8614;48.522;9.206;2023-02-21T11:55:21;14.20;99.90
16995;DHT22;8614;48.522;9.206;2023-02-21T11:57:54;14.30;99.90
16995;DHT22;8614;48.522;9.206;2023-02-21T12:00:26;14.30;99.90
16995;DHT22;8614;48.522;9.206;2023-02-21T12:03:06;14.30;99.90
16995;DHT22;8614;48.522;9.206;2023-02-21T12:05:44;14.30;99.90
16995;DHT22;8614;48.522;9.206;2023-02-21T12:11:13;14.40;99.90
16995;DHT22;8614;48.522;9.206;2023-02-21T12:13:51;14.40;99.90
16995;DHT22;8614;48.522;9.206;2023-02-21T12:16:28;14.50;99.90
16995;DHT22;8614;48.522;9.206;2023-02-21T12:19:11;14.60;99.90
16995;DHT22;8614;48.522;9.206;2023-02-21T12:22:01;14.60;99.90
16995;DHT22;8614;48.522;9.206;2023-02-21T12:24:47;14.60;99.90
16995;DHT22;8614;48.522;9.206;2023-02-21T12:27:25;14.70;99.90
16995;DHT22;8614;48.522;9.206;2023-02-21T12:30:09;14.80;99.90
16995;DHT22;8614;48.522;9.206;2023-02-21T12:32:48;14.80;99.90
16995;DHT22;8614;48.522;9.206;2023-02-21T12:35:35;14.80;99.90
16995;DHT22;8614;48.522;9.206;2023-02-21T12:38:07;14.80;99.90
16995;DHT22;8614;48.522;9.206;2023-02-21T12:40:41;14.80;99.90
16995;DHT22;8614;48.522;9.206;2023-02-21T12:43:35;14.80;99.90
16995;DHT22;8614;48.522;9.206;2023-02-21T12:46:08;14.90;99.90
16995;DHT22;8614;48.522;9.206;2023-02-21T12:48:41;15.00;99.90
16995;DHT22;8614;48.522;9.206;2023-02-21T12:51:13;15.10;99.90
16995;DHT22;8614;48.522;9.206;2023-02-21T12:53:46;15.20;99.90
16995;DHT22;8614;48.522;9.206;2023-02-21T12:56:18;15.10;99.90
16995;DHT22;8614;48.522;9.206;2023-02-21T12:58:51;15.20;99.90
16995;DHT22;8614;48.522;9.206;2023-02-21T13:01:24;15.20;99.90
16995;DHT22;8614;48.522;9.206;2023-02-21T13:03:57;15.30;99.90
16995;DHT22;8614;48.522;9.206;2023-02-21T13:06:31;15.30;99.90
16995;DHT22;8614;48.522;9.206;2023-02-21T13:09:12;15.30;99.90
16995;DHT22;8614;48.522;9.206;2023-02-21T13:11:45;15.30;99.90
16995;DHT22;8614;48.522;9.206;2023-02-21T13:14:17;15.30;99.90
16995;DHT22;8614;48.522;9.206;2023-02-21T13:16:46;15.30;99.90
16995;DHT22;8614;48.522;9.206;2023-02-21T13:19:14;15.30;99.90
16995;DHT22;8614;48.522;9.206;2023-02-21T13:21:56;15.30;99.90
16995;DHT22;8614;48.522;9.206;2023-02-21T13:24:32;15.40;99.90
16995;DHT22;8614;48.522;9.206;2023-02-21T13:27:40;15.50;99.90
16995;DHT22;8614;48.522;9.206;2023-02-21T13:30:15;15.50;99.90
16995;DHT22;8614;48.522;9.206;2023-02-21T13:32:50;15.50;99.90
16995;DHT22;8614;48.522;9.206;2023-02-21T13:35:20;15.40;99.90
16995;DHT22;8614;48.522;9.206;2023-02-21T13:37:51;15.40;99.90
16995;DHT22;8614;48.522;9.206;2023-02-21T13:40:21;15.50;99.90
16995;DHT22;8614;48.522;9.206;2023-02-21T13:42:59;15.60;99.90
16995;DHT22;8614;48.522;9.206;2023-02-21T13:45:29;15.60;99.90
16995;DHT22;8614;48.522;9.206;2023-02-21T13:48:20;15.60;99.90
16995;DHT22;8614;48.522;9.206;2023-02-21T13:50:49;15.60;99.90
16995;DHT22;8614;48.522;9.206;2023-02-21T13:53:18;15.60;99.90
16995;DHT22;8614;48.522;9.206;2023-02-21T13:58:51;15.70;99.90
16995;DHT22;8614;48.522;9.206;2023-02-21T14:01:43;15.70;99.90
16995;DHT22;8614;48.522;9.206;2023-02-21T14:07:56;15.80;99.90
16995;DHT22;8614;48.522;9.206;2023-02-21T14:10:32;15.80;99.90
16995;DHT22;8614;48.522;9.206;2023-02-21T14:13:02;15.80;99.90
16995;DHT22;8614;48.522;9.206;2023-02-21T14:15:40;15.90;99.90
16995;DHT22;8614;48.522;9.206;2023-02-21T14:18:18;15.90;99.90
16995;DHT22;8614;48.522;9.206;2023-02-21T14:20:49;15.90;99.90
16995;DHT22;8614;48.522;9.206;2023-02-21T14:23:16;15.90;99.90
16995;DHT22;8614;48.522;9.206;2023-02-21T14:25:54;15.90;99.90
16995;DHT22;8614;48.522;9.206;2023-02-21T14:28:48;16.00;99.90
16995;DHT22;8614;48.522;9.206;2023-02-21T14:31:44;16.00;99.90
16995;DHT22;8614;48.522;9.206;2023-02-21T14:34:14;16.00;99.90
16995;DHT22;8614;48.522;9.206;2023-02-21T14:36:44;16.00;99.90
16995;DHT22;8614;48.522;9.206;2023-02-21T14:39:12;16.00;99.90
16995;DHT22;8614;48.522;9.206;2023-02-21T14:41:50;16.00;99.90
16995;DHT22;8614;48.522;9.206;2023-02-21T14:44:26;16.00;99.90
16995;DHT22;8614;48.522;9.206;2023-02-21T14:47:20;16.10;99.90
16995;DHT22;8614;48.522;9.206;2023-02-21T14:50:17;16.10;99.90
16995;DHT22;8614;48.522;9.206;2023-02-21T14:53:06;16.00;99.90
16995;DHT22;8614;48.522;9.206;2023-02-21T14:56:00;16.00;99.90
16995;DHT22;8614;48.522;9.206;2023-02-21T15:01:44;16.00;99.90
16995;DHT22;8614;48.522;9.206;2023-02-21T15:04:16;16.00;99.90
16995;DHT22;8614;48.522;9.206;2023-02-21T15:07:07;16.00;99.90
16995;DHT22;8614;48.522;9.206;2023-02-21T15:09:34;15.90;99.90
16995;DHT22;8614;48.522;9.206;2023-02-21T15:12:03;15.90;99.90
16995;DHT22;8614;48.522;9.206;2023-02-21T15:14:37;15.90;99.90
16995;DHT22;8614;48.522;9.206;2023-02-21T15:17:11;15.80;99.90
16995;DHT22;8614;48.522;9.206;2023-02-21T15:19:38;15.80;99.90
16995;DHT22;8614;48.522;9.206;2023-02-21T15:22:19;15.70;99.90
16995;DHT22;8614;48.522;9.206;2023-02-21T15:25:20;15.70;99.90
16995;DHT22;8614;48.522;9.206;2023-02-21T15:28:02;15.60;99.90
16995;DHT22;8614;48.522;9.206;2023-02-21T15:30:33;15.60;99.90
16995;DHT22;8614;48.522;9.206;2023-02-21T15:33:05;15.60;99.90
16995;DHT22;8614;48.522;9.206;2023-02-21T15:35:35;15.60;99.90
16995;DHT22;8614;48.522;9.206;2023-02-21T15:38:10;15.60;99.90
16995;DHT22;8614;48.522;9.206;2023-02-21T15:40:38;15.50;99.90
16995;DHT22;8614;48.522;9.206;2023-02-21T15:43:06;15.50;99.90
16995;DHT22;8614;48.522;9.206;2023-02-21T15:45:44;15.30;99.90
16995;DHT22;8614;48.522;9.206;2023-02-21T15:48:12;15.20;99.90
16995;DHT22;8614;48.522;9.206;2023-02-21T15:50:42;15.20;99.90
16995;DHT22;8614;48.522;9.206;2023-02-21T15:53:16;15.20;99.90
16995;DHT22;8614;48.522;9.206;2023-02-21T15:55:44;15.10;99.90
16995;DHT22;8614;48.522;9.206;2023-02-21T15:58:15;15.10;99.90
16995;DHT22;8614;48.522;9.206;2023-02-21T16:00:43;15.00;99.90
16995;DHT22;8614;48.522;9.206;2023-02-21T16:03:28;14.90;99.90
16995;DHT22;8614;48.522;9.206;2023-02-21T16:06:15;14.80;99.90
16995;DHT22;8614;48.522;9.206;2023-02-21T16:09:17;14.70;99.90
16995;DHT22;8614;48.522;9.206;2023-02-21T16:11:51;14.60;99.90
16995;DHT22;8614;48.522;9.206;2023-02-21T16:14:22;14.60;99.90
16995;DHT22;8614;48.522;9.206;2023-02-21T16:16:52;14.40;99.90
16995;DHT22;8614;48.522;9.206;2023-02-21T16:19:21;14.30;99.90
16995;DHT22;8614;48.522;9.206;2023-02-21T16:21:48;14.20;99.90
16995;DHT22;8614;48.522;9.206;2023-02-21T16:24:27;14.10;99.90
16995;DHT22;8614;48.522;9.206;2023-02-21T16:27:05;14.10;99.90
16995;DHT22;8614;48.522;9.206;2023-02-21T16:29:34;14.00;99.90
16995;DHT22;8614;48.522;9.206;2023-02-21T16:32:01;13.80;99.90
16995;DHT22;8614;48.522;9.206;2023-02-21T16:34:32;13.70;99.90
16995;DHT22;8614;48.522;9.206;2023-02-21T16:37:01;13.60;99.90
16995;DHT22;8614;48.522;9.206;2023-02-21T16:39:30;13.50;99.90
16995;DHT22;8614;48.522;9.206;2023-02-21T16:41:57;13.40;99.90
16995;DHT22;8614;48.522;9.206;2023-02-21T16:44:24;13.30;99.90
16995;DHT22;8614;48.522;9.206;2023-02-21T16:46:51;13.30;99.90
16995;DHT22;8614;48.522;9.206;2023-02-21T16:49:17;13.20;99.90
16995;DHT22;8614;48.522;9.206;2023-02-21T16:51:44;13.10;99.90
16995;DHT22;8614;48.522;9.206;2023-02-21T16:54:11;13.00;99.90
16995;DHT22;8614;48.522;9.206;2023-02-21T16:56:41;12.80;99.90
16995;DHT22;8614;48.522;9.206;2023-02-21T16:59:09;12.70;99.90
16995;DHT22;8614;48.522;9.206;2023-02-21T17:01:37;12.60;99.90
16995;DHT22;8614;48.522;9.206;2023-02-21T17:04:05;12.50;99.90
16995;DHT22;8614;48.522;9.206;2023-02-21T17:06:32;12.40;99.90
16995;DHT22;8614;48.522;9.206;2023-02-21T17:09:00;12.20;99.90
16995;DHT22;8614;48.522;9.206;2023-02-21T17:11:27;12.10;99.90
16995;DHT22;8614;48.522;9.206;2023-02-21T17:13:55;11.90;99.90
16995;DHT22;8614;48.522;9.206;2023-02-21T17:16:22;11.70;99.90
16995;DHT22;8614;48.522;9.206;2023-02-21T17:18:48;11.60;99.90
16995;DHT22;8614;48.522;9.206;2023-02-21T17:21:15;11.40;99.90
16995;DHT22;8614;48.522;9.206;2023-02-21T17:23:42;11.30;99.90
16995;DHT22;8614;48.522;9.206;2023-02-21T17:26:09;11.10;99.90
16995;DHT22;8614;48.522;9.206;2023-02-21T17:28:37;11.00;99.90
16995;DHT22;8614;48.522;9.206;2023-02-21T17:31:05;10.90;99.90
16995;DHT22;8614;48.522;9.206;2023-02-21T17:33:32;10.80;99.90
16995;DHT22;8614;48.522;9.206;2023-02-21T17:36:00;10.70;99.90
16995;DHT22;8614;48.522;9.206;2023-02-21T17:38:27;10.50;99.90
16995;DHT22;8614;48.522;9.206;2023-02-21T17:40:53;10.40;99.90
16995;DHT22;8614;48.522;9.206;2023-02-21T17:43:20;10.30;99.90
16995;DHT22;8614;48.522;9.206;2023-02-21T17:45:47;10.20;99.90
16995;DHT22;8614;48.522;9.206;2023-02-21T17:48:15;10.10;99.90
16995;DHT22;8614;48.522;9.206;2023-02-21T17:50:42;10.00;99.90
16995;DHT22;8614;48.522;9.206;2023-02-21T17:53:09;9.90;99.90
16995;DHT22;8614;48.522;9.206;2023-02-21T17:55:36;9.80;99.90
16995;DHT22;8614;48.522;9.206;2023-02-21T17:58:02;9.70;99.90
16995;DHT22;8614;48.522;9.206;2023-02-21T18:00:30;9.60;99.90
16995;DHT22;8614;48.522;9.206;2023-02-21T18:02:59;9.50;99.90
16995;DHT22;8614;48.522;9.206;2023-02-21T18:05:51;9.40;99.90
16995;DHT22;8614;48.522;9.206;2023-02-21T18:08:48;9.30;99.90
16995;DHT22;8614;48.522;9.206;2023-02-21T18:11:16;9.20;99.90
16995;DHT22;8614;48.522;9.206;2023-02-21T18:13:43;9.20;99.90
16995;DHT22;8614;48.522;9.206;2023-02-21T18:16:10;9.20;99.90
16995;DHT22;8614;48.522;9.206;2023-02-21T18:47:40;8.60;99.90
16995;DHT22;8614;48.522;9.206;2023-02-21T19:01:54;8.00;99.90
16995;DHT22;8614;48.522;9.206;2023-02-21T19:04:22;7.90;99.90
16995;DHT22;8614;48.522;9.206;2023-02-21T19:06:49;7.90;99.90
16995;DHT22;8614;48.522;9.206;2023-02-21T19:09:16;7.80;99.90
16995;DHT22;8614;48.522;9.206;2023-02-21T19:11:43;7.70;99.90
16995;DHT22;8614;48.522;9.206;2023-02-21T19:14:09;7.70;99.90
16995;DHT22;8614;48.522;9.206;2023-02-21T19:16:36;7.60;99.90
16995;DHT22;8614;48.522;9.206;2023-02-21T19:19:04;7.60;99.90
16995;DHT22;8614;48.522;9.206;2023-02-21T19:21:32;7.50;99.90
16995;DHT22;8614;48.522;9.206;2023-02-21T19:23:59;7.40;99.90
16995;DHT22;8614;48.522;9.206;2023-02-21T19:26:27;7.40;99.90
16995;DHT22;8614;48.522;9.206;2023-02-21T19:28:54;7.30;99.90
16995;DHT22;8614;48.522;9.206;2023-02-21T19:31:21;7.20;99.90
16995;DHT22;8614;48.522;9.206;2023-02-21T19:33:48;7.20;99.90
16995;DHT22;8614;48.522;9.206;2023-02-21T19:36:15;7.10;99.90
16995;DHT22;8614;48.522;9.206;2023-02-21T19:38:43;7.00;99.90
16995;DHT22;8614;48.522;9.206;2023-02-21T19:41:10;7.00;99.90
16995;DHT22;8614;48.522;9.206;2023-02-21T19:43:37;7.00;99.90
16995;DHT22;8614;48.522;9.206;2023-02-21T19:46:04;6.90;99.90
16995;DHT22;8614;48.522;9.206;2023-02-21T19:48:31;6.90;99.90
16995;DHT22;8614;48.522;9.206;2023-02-21T19:50:58;6.90;99.90
16995;DHT22;8614;48.522;9.206;2023-02-21T19:53:24;6.80;99.90
16995;DHT22;8614;48.522;9.206;2023-02-21T19:55:53;6.80;99.90
16995;DHT22;8614;48.522;9.206;2023-02-21T19:58:19;6.80;99.90
16995;DHT22;8614;48.522;9.206;2023-02-21T20:00:46;6.80;99.90
16995;DHT22;8614;48.522;9.206;2023-02-21T20:03:14;6.80;99.90
16995;DHT22;8614;48.522;9.206;2023-02-21T20:05:41;6.70;99.90
16995;DHT22;8614;48.522;9.206;2023-02-21T20:08:07;6.70;99.90
16995;DHT22;8614;48.522;9.206;2023-02-21T20:10:34;6.60;99.90
16995;DHT22;8614;48.522;9.206;2023-02-21T20:13:02;6.60;99.90